createdAt,value
2022-10-29T00:01:18.350Z,13.17
2022-10-29T00:03:48.385Z,10.80
2022-10-29T00:06:16.901Z,10.37
2022-10-29T00:08:45.335Z,8.37
2022-10-29T00:11:18.363Z,8.77
2022-10-29T00:13:48.999Z,11.53
2022-10-29T00:16:21.153Z,10.33
2022-10-29T00:18:50.136Z,13.30
2022-10-29T00:21:21.221Z,10.63
2022-10-29T00:23:51.152Z,12.23
2022-10-29T00:26:23.673Z,10.07
2022-10-29T00:28:54.651Z,11.80
2022-10-29T00:31:25.111Z,8.43
2022-10-29T00:33:56.321Z,11.90
2022-10-29T00:36:27.675Z,9.80
2022-10-29T00:38:57.029Z,10.60
2022-10-29T00:41:30.627Z,16.50
2022-10-29T00:44:29.967Z,11.43
2022-10-29T00:47:18.353Z,11.10
2022-10-29T00:49:50.973Z,12.53
2022-10-29T00:52:25.039Z,8.90
2022-10-29T00:54:55.856Z,13.37
2022-10-29T00:57:31.906Z,12.93
2022-10-29T01:00:00.547Z,12.67
2022-10-29T01:02:35.125Z,9.17
2022-10-29T01:05:06.423Z,11.27
2022-10-29T01:07:35.765Z,13.27
2022-10-29T01:10:04.396Z,11.10
2022-10-29T01:13:08.210Z,12.17
2022-10-29T01:15:48.697Z,9.40
2022-10-29T01:18:28.678Z,10.97
2022-10-29T01:21:43.947Z,11.10
2022-10-29T01:24:53.269Z,11.67
2022-10-29T01:28:00.036Z,11.60
2022-10-29T01:31:01.606Z,11.57
2022-10-29T01:33:42.271Z,10.67
2022-10-29T01:36:23.772Z,10.77
2022-10-29T01:39:04.961Z,11.23
2022-10-29T01:41:50.879Z,10.23
2022-10-29T01:44:34.431Z,8.40
2022-10-29T01:47:06.868Z,13.73
2022-10-29T01:49:41.011Z,10.33
2022-10-29T01:52:14.808Z,15.67
2022-10-29T01:54:45.145Z,8.67
2022-10-29T01:57:32.100Z,6.93
2022-10-29T02:00:07.806Z,12.87
2022-10-29T02:03:01.547Z,10.97
2022-10-29T02:05:36.627Z,14.70
2022-10-29T02:08:21.941Z,12.77
2022-10-29T02:10:59.007Z,14.87
2022-10-29T02:13:34.297Z,13.60
2022-10-29T02:16:08.356Z,8.43
2022-10-29T02:18:44.614Z,10.70
2022-10-29T02:21:16.078Z,13.93
2022-10-29T02:23:44.535Z,11.90
2022-10-29T02:26:13.572Z,12.37
2022-10-29T02:28:42.021Z,13.07
2022-10-29T02:31:10.962Z,15.43
2022-10-29T02:33:39.482Z,11.13
2022-10-29T02:36:10.374Z,11.23
2022-10-29T02:38:39.369Z,11.83
2022-10-29T02:41:07.798Z,13.83
2022-10-29T02:43:36.206Z,9.83
2022-10-29T02:46:16.150Z,7.60
2022-10-29T02:48:45.290Z,12.43
2022-10-29T02:51:16.148Z,13.87
2022-10-29T02:53:45.018Z,14.17
2022-10-29T02:56:14.017Z,11.93
2022-10-29T02:58:42.418Z,10.23
2022-10-29T03:01:10.886Z,13.90
2022-10-29T03:03:39.466Z,11.77
2022-10-29T03:06:15.359Z,12.50
2022-10-29T03:08:43.851Z,13.97
2022-10-29T03:11:13.422Z,14.87
2022-10-29T03:13:47.484Z,11.57
2022-10-29T03:16:16.331Z,11.57
2022-10-29T03:18:44.715Z,11.97
2022-10-29T03:21:14.502Z,11.10
2022-10-29T03:23:43.003Z,12.87
2022-10-29T03:26:11.710Z,9.67
2022-10-29T03:28:40.521Z,12.40
2022-10-29T03:31:09.532Z,9.90
2022-10-29T03:33:37.981Z,10.97
2022-10-29T03:36:09.219Z,14.73
2022-10-29T03:38:39.036Z,14.07
2022-10-29T03:41:10.426Z,12.13
2022-10-29T03:43:40.558Z,8.20
2022-10-29T03:46:09.667Z,14.20
2022-10-29T03:48:38.479Z,9.83
2022-10-29T03:51:07.988Z,10.33
2022-10-29T03:53:39.324Z,9.23
2022-10-29T03:56:08.289Z,11.40
2022-10-29T03:58:36.826Z,11.40
2022-10-29T04:01:07.785Z,13.50
2022-10-29T04:03:41.336Z,13.73
2022-10-29T04:06:12.691Z,9.07
2022-10-29T04:08:43.129Z,11.80
2022-10-29T04:11:13.637Z,16.70
2022-10-29T04:13:42.493Z,11.33
2022-10-29T04:16:10.898Z,9.43
2022-10-29T04:18:39.621Z,12.00
2022-10-29T04:29:35.545Z,13.70
2022-10-29T04:32:04.091Z,9.10
2022-10-29T04:34:32.837Z,13.47
2022-10-29T04:37:01.345Z,17.13
2022-10-29T04:39:31.121Z,13.37
2022-10-29T04:42:00.099Z,11.43
2022-10-29T04:44:29.063Z,12.60
2022-10-29T04:46:57.471Z,11.33
2022-10-29T04:49:26.198Z,16.07
2022-10-29T04:51:54.686Z,11.90
2022-10-29T04:54:23.385Z,16.40
2022-10-29T04:56:53.151Z,10.70
2022-10-29T04:59:21.567Z,16.57
2022-10-29T05:01:50.044Z,8.80
2022-10-29T05:04:18.988Z,11.43
2022-10-29T05:06:47.418Z,13.40
2022-10-29T05:09:15.809Z,15.10
2022-10-29T05:11:44.670Z,15.50
2022-10-29T05:14:14.435Z,12.93
2022-10-29T05:16:42.875Z,11.27
2022-10-29T05:19:11.332Z,11.73
2022-10-29T05:21:39.737Z,14.23
2022-10-29T05:24:09.147Z,14.17
2022-10-29T05:26:37.568Z,13.77
2022-10-29T05:29:05.927Z,11.77
2022-10-29T05:31:35.675Z,19.93
2022-10-29T05:34:04.095Z,16.47
2022-10-29T05:36:32.517Z,13.93
2022-10-29T05:39:01.111Z,18.63
2022-10-29T05:41:29.778Z,13.23
2022-10-29T05:43:58.750Z,11.40
2022-10-29T05:46:27.356Z,11.97
2022-10-29T05:48:57.309Z,15.97
2022-10-29T05:51:26.007Z,15.63
2022-10-29T05:53:54.431Z,13.27
2022-10-29T05:56:23.114Z,14.90
2022-10-29T05:58:51.944Z,11.93
2022-10-29T06:01:20.716Z,16.10
2022-10-29T06:03:49.560Z,15.63
2022-10-29T06:06:19.697Z,15.90
2022-10-29T06:08:48.375Z,17.63
2022-10-29T06:11:16.816Z,15.03
2022-10-29T06:13:45.282Z,15.60
2022-10-29T06:16:13.690Z,14.47
2022-10-29T06:18:42.086Z,18.80
2022-10-29T06:21:10.514Z,17.83
2022-10-29T06:23:40.862Z,13.23
2022-10-29T06:26:09.551Z,15.67
2022-10-29T06:28:38.306Z,13.13
2022-10-29T06:31:06.999Z,16.83
2022-10-29T06:33:35.963Z,13.80
2022-10-29T06:36:05.102Z,17.10
2022-10-29T06:38:33.497Z,11.73
2022-10-29T06:41:03.229Z,13.27
2022-10-29T06:43:32.013Z,13.80
2022-10-29T06:46:00.439Z,16.00
2022-10-29T06:48:29.393Z,18.23
2022-10-29T06:51:00.453Z,14.07
2022-10-29T06:53:29.547Z,13.83
2022-10-29T06:55:59.834Z,20.40
2022-10-29T06:58:30.125Z,14.93
2022-10-29T07:01:02.012Z,13.00
2022-10-29T07:03:30.507Z,12.20
2022-10-29T07:06:00.981Z,13.23
2022-10-29T07:08:30.557Z,18.23
2022-10-29T07:10:59.579Z,11.80
2022-10-29T07:13:29.609Z,14.87
2022-10-29T07:15:58.148Z,15.00
2022-10-29T07:18:26.928Z,10.17
2022-10-29T07:20:55.422Z,13.53
2022-10-29T07:23:24.025Z,17.00
2022-10-29T07:25:54.328Z,16.93
2022-10-29T07:28:25.506Z,18.27
2022-10-29T07:31:01.631Z,13.27
2022-10-29T07:33:31.106Z,14.07
2022-10-29T07:36:00.919Z,15.13
2022-10-29T07:38:29.741Z,13.33
2022-10-29T07:40:58.559Z,19.20
2022-10-29T07:43:27.380Z,14.30
2022-10-29T07:45:57.381Z,14.93
2022-10-29T07:48:27.207Z,16.20
2022-10-29T07:50:59.259Z,13.93
2022-10-29T07:53:31.198Z,12.13
2022-10-29T07:56:00.673Z,18.20
2022-10-29T07:58:29.592Z,13.83
2022-10-29T08:01:01.219Z,17.63
2022-10-29T08:03:30.154Z,12.00
2022-10-29T08:05:59.349Z,13.93
2022-10-29T08:08:27.810Z,14.67
2022-10-29T08:11:01.427Z,9.63
2022-10-29T08:13:30.987Z,22.87
2022-10-29T08:16:01.396Z,14.93
2022-10-29T08:18:30.456Z,12.20
2022-10-29T08:20:59.516Z,14.73
2022-10-29T08:23:28.015Z,14.10
2022-10-29T08:25:58.949Z,15.73
2022-10-29T08:28:29.360Z,13.97
2022-10-29T08:31:00.806Z,13.53
2022-10-29T08:33:29.553Z,11.60
2022-10-29T08:35:57.993Z,9.57
2022-10-29T08:38:27.013Z,10.67
2022-10-29T08:41:27.806Z,12.60
2022-10-29T08:44:39.198Z,11.07
2022-10-29T08:47:20.417Z,15.93
2022-10-29T08:50:03.891Z,14.13
2022-10-29T08:52:44.576Z,9.93
2022-10-29T08:55:35.819Z,15.83
2022-10-29T08:58:24.772Z,15.60
2022-10-29T09:00:58.852Z,14.13
2022-10-29T09:03:30.416Z,11.57
2022-10-29T09:06:11.397Z,16.43
2022-10-29T09:09:11.778Z,15.60
2022-10-29T09:12:06.149Z,13.83
2022-10-29T09:14:57.763Z,9.00
2022-10-29T09:17:36.643Z,10.37
2022-10-29T09:20:25.448Z,11.93
2022-10-29T09:23:10.584Z,12.40
2022-10-29T09:25:50.040Z,17.67
2022-10-29T09:28:38.046Z,17.10
2022-10-29T09:31:23.811Z,13.73
2022-10-29T09:33:59.249Z,13.07
2022-10-29T09:36:32.687Z,15.07
2022-10-29T09:39:11.337Z,15.47
2022-10-29T09:41:41.658Z,13.47
2022-10-29T09:44:22.290Z,13.33
2022-10-29T09:47:09.667Z,15.37
2022-10-29T09:49:55.386Z,12.53
2022-10-29T09:52:31.832Z,11.27
2022-10-29T09:55:03.793Z,12.43
2022-10-29T09:57:36.735Z,8.90
2022-10-29T10:00:14.925Z,12.70
2022-10-29T10:02:48.816Z,11.47
2022-10-29T10:05:26.038Z,11.03
2022-10-29T10:08:14.627Z,13.23
2022-10-29T10:10:54.699Z,14.63
2022-10-29T10:13:27.674Z,18.03
2022-10-29T10:15:59.497Z,12.23
2022-10-29T10:18:41.007Z,18.37
2022-10-29T10:21:12.776Z,12.53
2022-10-29T10:23:47.322Z,13.90
2022-10-29T10:26:39.400Z,11.20
2022-10-29T10:29:14.154Z,9.93
2022-10-29T10:31:44.437Z,14.07
2022-10-29T10:34:20.679Z,10.40
2022-10-29T10:36:54.881Z,8.97
2022-10-29T10:39:31.913Z,9.77
2022-10-29T10:42:05.242Z,10.47
2022-10-29T10:44:35.419Z,12.97
2022-10-29T10:47:08.482Z,12.57
2022-10-29T10:49:39.772Z,11.13
2022-10-29T10:52:19.411Z,11.30
2022-10-29T10:54:59.739Z,11.33
2022-10-29T10:57:35.091Z,16.23
2022-10-29T11:00:08.100Z,9.97
2022-10-29T11:02:51.766Z,13.10
2022-10-29T11:05:22.947Z,14.53
2022-10-29T11:08:04.963Z,9.73
2022-10-29T11:10:41.516Z,7.57
2022-10-29T11:13:18.067Z,13.23
2022-10-29T11:15:57.624Z,11.10
2022-10-29T11:18:34.702Z,10.23
2022-10-29T11:21:14.076Z,8.87
2022-10-29T11:23:53.870Z,16.93
2022-10-29T11:26:32.629Z,9.90
2022-10-29T11:29:17.303Z,7.47
2022-10-29T11:31:58.289Z,11.27
2022-10-29T11:34:49.256Z,8.20
2022-10-29T11:37:27.049Z,9.70
2022-10-29T11:40:03.557Z,11.03
2022-10-29T11:42:33.755Z,8.00
2022-10-29T11:45:03.062Z,5.77
2022-10-29T11:48:05.175Z,6.97
2022-10-29T11:50:48.633Z,7.97
2022-10-29T11:53:37.757Z,8.63
2022-10-29T11:56:20.377Z,7.87
2022-10-29T11:59:01.202Z,8.47
2022-10-29T12:01:40.093Z,8.23
2022-10-29T12:04:27.950Z,11.37
2022-10-29T12:07:20.110Z,7.10
2022-10-29T12:10:18.598Z,6.87
2022-10-29T12:12:59.825Z,7.97
2022-10-29T12:15:42.056Z,5.40
2022-10-29T12:18:26.464Z,5.30
2022-10-29T12:21:10.613Z,8.60
2022-10-29T12:23:56.071Z,6.97
2022-10-29T12:26:35.931Z,5.40
2022-10-29T12:29:16.784Z,6.63
2022-10-29T12:31:58.121Z,9.03
2022-10-29T12:34:35.878Z,6.97
2022-10-29T12:37:17.707Z,6.10
2022-10-29T12:39:52.714Z,6.73
2022-10-29T12:42:26.964Z,11.63
2022-10-29T12:45:15.795Z,9.03
2022-10-29T12:47:56.318Z,11.00
2022-10-29T12:50:44.266Z,7.27
2022-10-29T12:53:30.134Z,13.47
2022-10-29T12:55:59.916Z,10.33
2022-10-29T12:58:50.337Z,9.60
2022-10-29T13:02:18.647Z,10.17
2022-10-29T13:05:41.914Z,7.13
2022-10-29T13:08:33.765Z,9.77
2022-10-29T13:11:02.258Z,7.43
2022-10-29T13:13:58.705Z,7.63
2022-10-29T13:16:33.093Z,16.60
2022-10-29T13:19:19.157Z,6.57
2022-10-29T13:22:50.982Z,9.70
2022-10-29T13:25:42.252Z,12.20
2022-10-29T13:28:52.542Z,11.17
2022-10-29T13:31:50.000Z,12.03
2022-10-29T13:34:58.702Z,8.83
2022-10-29T13:38:17.832Z,11.03
2022-10-29T13:41:23.408Z,9.47
2022-10-29T13:44:01.164Z,10.00
2022-10-29T13:46:45.820Z,11.17
2022-10-29T13:49:20.841Z,15.20
2022-10-29T13:51:56.822Z,9.20
2022-10-29T13:54:36.336Z,9.90
2022-10-29T13:57:18.735Z,7.37
2022-10-29T13:59:54.799Z,12.37
2022-10-29T14:02:33.261Z,12.33
2022-10-29T14:05:18.879Z,10.27
2022-10-29T14:07:55.949Z,7.83
2022-10-29T14:10:33.753Z,7.37
2022-10-29T14:13:23.704Z,10.07
2022-10-29T14:16:09.881Z,11.40
2022-10-29T14:18:41.662Z,7.67
2022-10-29T14:21:17.519Z,13.30
2022-10-29T14:24:00.096Z,11.63
2022-10-29T14:26:32.681Z,11.17
2022-10-29T14:29:18.212Z,12.90
2022-10-29T14:31:48.362Z,17.20
2022-10-29T14:34:27.482Z,12.60
2022-10-29T14:37:02.525Z,14.17
2022-10-29T14:44:58.885Z,14.70
2022-10-29T14:47:33.384Z,11.43
2022-10-29T14:50:07.446Z,14.07
2022-10-29T14:52:42.233Z,12.23
2022-10-29T14:55:19.434Z,13.20
2022-10-29T14:58:00.775Z,12.13
2022-10-29T15:00:35.711Z,7.93
2022-10-29T15:03:06.856Z,9.47
2022-10-29T15:05:38.859Z,13.20
2022-10-29T15:08:16.366Z,12.23
2022-10-29T15:10:49.326Z,11.97
2022-10-29T15:13:31.528Z,12.27
2022-10-29T15:16:05.201Z,15.47
2022-10-29T15:18:35.882Z,11.33
2022-10-29T15:21:06.522Z,13.67
2022-10-29T15:23:43.849Z,10.43
2022-10-29T15:26:20.480Z,10.67
2022-10-29T15:28:54.935Z,12.83
2022-10-29T15:31:31.554Z,9.30
2022-10-29T15:34:10.823Z,13.60
2022-10-29T15:36:51.864Z,11.27
2022-10-29T15:39:26.723Z,11.17
2022-10-29T15:41:59.216Z,8.23
2022-10-29T15:44:40.853Z,13.73
2022-10-29T15:47:27.230Z,7.20
2022-10-29T15:49:55.982Z,15.27
2022-10-29T15:52:32.189Z,7.77
2022-10-29T15:55:02.283Z,10.73
2022-10-29T15:57:31.836Z,13.63
2022-10-29T16:00:07.125Z,12.93
2022-10-29T16:02:36.037Z,17.73
2022-10-29T16:05:05.030Z,11.77
2022-10-29T16:07:34.641Z,10.47
2022-10-29T16:10:03.425Z,12.67
2022-10-29T16:12:32.690Z,11.83
2022-10-29T16:15:01.219Z,14.53
2022-10-29T16:17:31.372Z,25.57
2022-10-29T16:19:59.935Z,60.93
2022-10-29T16:22:30.663Z,71.33
2022-10-29T16:24:59.638Z,91.37
2022-10-29T16:27:28.209Z,101.70
2022-10-29T16:29:57.159Z,90.10
2022-10-29T16:32:26.083Z,59.00
2022-10-29T16:34:56.545Z,40.90
2022-10-29T16:37:24.974Z,31.57
2022-10-29T16:39:54.076Z,36.10
2022-10-29T16:42:31.492Z,28.10
2022-10-29T16:45:00.074Z,34.20
2022-10-29T16:47:29.627Z,36.03
2022-10-29T16:49:59.448Z,30.43
2022-10-29T16:52:29.829Z,22.67
2022-10-29T16:54:59.097Z,20.63
2022-10-29T16:57:29.352Z,22.57
2022-10-29T16:59:57.965Z,20.50
2022-10-29T17:02:26.571Z,18.97
2022-10-29T17:04:55.441Z,20.63
2022-10-29T17:07:25.481Z,19.10
2022-10-29T17:09:53.948Z,16.93
2022-10-29T17:12:22.419Z,20.57
2022-10-29T17:14:50.846Z,16.97
2022-10-29T17:17:19.998Z,10.47
2022-10-29T17:19:48.972Z,11.57
2022-10-29T17:22:17.681Z,15.70
2022-10-29T17:24:48.030Z,10.63
2022-10-29T17:27:17.169Z,12.63
2022-10-29T17:29:45.667Z,9.97
2022-10-29T17:32:14.759Z,14.57
2022-10-29T17:34:43.245Z,9.07
2022-10-29T17:37:12.356Z,13.00
2022-10-29T17:39:40.830Z,10.83
2022-10-29T17:42:11.062Z,13.87
2022-10-29T17:44:39.597Z,10.23
2022-10-29T17:47:11.038Z,10.53
2022-10-29T17:49:40.412Z,10.30
2022-10-29T17:52:09.255Z,9.97
2022-10-29T17:54:37.702Z,9.43
2022-10-29T17:57:06.136Z,9.57
2022-10-29T17:59:35.894Z,9.73
2022-10-29T18:02:05.069Z,9.10
2022-10-29T18:04:33.661Z,16.93
2022-10-29T18:07:02.578Z,13.80
2022-10-29T18:09:31.038Z,13.67
2022-10-29T18:11:59.609Z,12.57
2022-10-29T18:14:28.130Z,13.40
2022-10-29T18:16:58.319Z,8.73
2022-10-29T18:19:27.019Z,8.37
2022-10-29T18:21:55.521Z,11.77
2022-10-29T18:24:24.512Z,12.53
2022-10-29T18:26:53.248Z,13.20
2022-10-29T18:29:21.895Z,9.93
2022-10-29T18:31:50.642Z,11.53
2022-10-29T18:34:21.809Z,12.33
2022-10-29T18:36:50.216Z,12.33
2022-10-29T18:39:19.181Z,7.60
2022-10-29T18:41:47.616Z,7.97
2022-10-29T18:44:16.139Z,10.23
2022-10-29T18:46:45.187Z,10.13
2022-10-29T18:49:14.188Z,8.50
2022-10-29T18:51:43.912Z,10.27
2022-10-29T18:54:14.593Z,9.17
2022-10-29T18:56:43.419Z,11.50
2022-10-29T18:59:12.717Z,10.67
2022-10-29T19:01:41.709Z,12.20
2022-10-29T19:04:14.524Z,12.30
2022-10-29T19:06:44.322Z,8.97
2022-10-29T19:09:13.698Z,11.23
2022-10-29T19:11:42.218Z,11.50
2022-10-29T19:14:14.208Z,10.43
2022-10-29T19:16:42.759Z,11.87
2022-10-29T19:19:16.069Z,11.33
2022-10-29T19:21:48.579Z,8.77
2022-10-29T19:24:17.262Z,11.87
2022-10-29T19:26:45.730Z,8.60
2022-10-29T19:29:15.150Z,16.77
2022-10-29T19:31:46.685Z,8.90
2022-10-29T19:34:15.196Z,12.23
2022-10-29T19:36:43.734Z,10.87
2022-10-29T19:39:13.891Z,8.57
2022-10-29T19:41:42.312Z,13.57
2022-10-29T19:44:10.731Z,9.00
2022-10-29T19:46:39.486Z,9.27
2022-10-29T19:49:08.153Z,9.47
2022-10-29T19:51:36.556Z,10.07
2022-10-29T19:54:07.125Z,12.50
2022-10-29T19:56:36.881Z,7.90
2022-10-29T19:59:06.385Z,12.63
2022-10-29T20:01:35.088Z,6.23
2022-10-29T20:04:04.462Z,14.10
2022-10-29T20:06:33.162Z,8.90
2022-10-29T20:09:02.213Z,7.03
2022-10-29T20:11:30.857Z,11.57
2022-10-29T20:14:01.293Z,9.87
2022-10-29T20:16:29.745Z,12.10
2022-10-29T20:18:59.128Z,9.30
2022-10-29T20:21:28.074Z,10.43
2022-10-29T20:23:56.502Z,8.77
2022-10-29T20:26:24.991Z,8.87
2022-10-29T20:28:53.405Z,9.73
2022-10-29T20:31:30.675Z,7.63
2022-10-29T20:34:01.676Z,6.67
2022-10-29T20:36:33.392Z,8.40
2022-10-29T20:39:02.517Z,11.47
2022-10-29T20:41:31.559Z,7.03
2022-10-29T20:44:02.153Z,8.27
2022-10-29T20:46:32.522Z,11.30
2022-10-29T20:49:01.559Z,7.80
2022-10-29T20:51:30.183Z,7.93
2022-10-29T20:53:59.279Z,12.80
2022-10-29T20:56:29.146Z,6.10
2022-10-29T20:58:57.870Z,7.50
2022-10-29T21:01:26.849Z,7.37
2022-10-29T21:03:56.905Z,6.63
2022-10-29T21:06:25.715Z,8.83
2022-10-29T21:08:54.910Z,7.87
2022-10-29T21:11:25.229Z,8.90
2022-10-29T21:13:53.704Z,6.97
2022-10-29T21:16:26.418Z,10.07
2022-10-29T21:18:59.906Z,7.07
2022-10-29T21:21:30.355Z,7.63
2022-10-29T21:23:59.854Z,10.57
2022-10-29T21:26:30.108Z,8.83
2022-10-29T21:28:59.157Z,4.93
2022-10-29T21:31:28.048Z,7.53
2022-10-29T21:33:58.300Z,6.63
2022-10-29T21:36:27.013Z,7.40
2022-10-29T21:38:55.601Z,9.03
2022-10-29T21:41:24.516Z,7.23
2022-10-29T21:43:53.149Z,7.67
2022-10-29T21:46:21.538Z,6.27
2022-10-29T21:48:49.940Z,7.00
2022-10-29T21:51:20.609Z,10.47
2022-10-29T21:53:49.555Z,8.17
2022-10-29T21:56:18.325Z,9.47
2022-10-29T21:58:46.859Z,11.27
2022-10-29T22:01:17.913Z,10.77
2022-10-29T22:03:48.379Z,11.70
2022-10-29T22:06:20.553Z,9.87
2022-10-29T22:08:55.415Z,10.67
2022-10-29T22:11:26.180Z,9.03
2022-10-29T22:13:56.053Z,7.87
2022-10-29T22:16:24.936Z,8.43
2022-10-29T22:18:54.156Z,8.70
2022-10-29T22:21:27.066Z,10.27
2022-10-29T22:23:57.750Z,8.17
2022-10-29T22:26:29.496Z,10.67
2022-10-29T22:28:58.222Z,13.50
2022-10-29T22:31:27.382Z,7.63
2022-10-29T22:33:56.266Z,8.60
2022-10-29T22:36:28.189Z,10.13
2022-10-29T22:38:58.845Z,9.43
2022-10-29T22:41:29.498Z,5.37
2022-10-29T22:43:59.812Z,8.77
2022-10-29T22:46:30.261Z,6.97
2022-10-29T22:49:01.642Z,7.23
2022-10-29T22:51:33.778Z,7.30
2022-10-29T22:54:03.305Z,8.17
2022-10-29T22:56:35.168Z,10.67
2022-10-29T22:59:05.170Z,10.53
2022-10-29T23:01:38.961Z,6.10
2022-10-29T23:04:10.931Z,7.43
2022-10-29T23:06:40.930Z,8.53
2022-10-29T23:09:10.018Z,6.90
2022-10-29T23:11:39.395Z,7.20
2022-10-29T23:14:07.933Z,13.67
2022-10-29T23:16:37.650Z,9.37
2022-10-29T23:19:07.315Z,7.37
2022-10-29T23:21:35.709Z,7.87
2022-10-29T23:24:06.329Z,9.87
2022-10-29T23:26:34.741Z,6.97
2022-10-29T23:29:03.282Z,11.87
2022-10-29T23:31:34.058Z,9.47
2022-10-29T23:34:02.733Z,8.53
2022-10-29T23:36:31.121Z,10.00
2022-10-29T23:39:02.174Z,9.83
2022-10-29T23:41:32.986Z,8.10
2022-10-29T23:44:01.563Z,6.27
2022-10-29T23:46:29.959Z,10.43
2022-10-29T23:48:59.041Z,6.97
2022-10-29T23:51:27.448Z,6.80
2022-10-29T23:53:57.628Z,7.27
2022-10-29T23:56:26.636Z,9.07
2022-10-29T23:58:56.559Z,8.63
